createdAt,value
2018-12-27T00:00:15.702Z,18.25
2018-12-27T00:02:43.857Z,16.97
2018-12-27T00:05:11.963Z,17.90
2018-12-27T00:07:42.547Z,16.25
2018-12-27T00:10:10.740Z,16.50
2018-12-27T00:12:38.809Z,15.93
2018-12-27T00:15:06.900Z,16.00
2018-12-27T00:17:35.953Z,17.65
2018-12-27T00:20:03.886Z,17.70
2018-12-27T00:22:32.320Z,18.10
2018-12-27T00:25:00.548Z,19.45
2018-12-27T00:27:47.762Z,16.52
2018-12-27T00:30:15.822Z,17.80
2018-12-27T00:32:44.694Z,18.60
2018-12-27T00:35:12.775Z,17.90
2018-12-27T00:37:41.337Z,17.62
2018-12-27T00:40:09.857Z,16.67
2018-12-27T00:42:38.015Z,16.67
2018-12-27T00:45:05.851Z,17.32
2018-12-27T00:47:33.996Z,17.05
2018-12-27T00:50:02.479Z,18.70
2018-12-27T00:52:30.794Z,17.55
2018-12-27T00:54:58.916Z,18.35
2018-12-27T00:57:27.363Z,17.52
2018-12-27T00:59:55.778Z,17.32
2018-12-27T01:02:24.894Z,17.20
2018-12-27T01:04:53.458Z,17.20
2018-12-27T01:07:21.648Z,17.55
2018-12-27T01:09:50.405Z,20.40
2018-12-27T01:12:18.843Z,19.52
2018-12-27T01:14:46.594Z,18.27
2018-12-27T01:17:14.756Z,18.87
2018-12-27T01:19:42.978Z,17.25
2018-12-27T01:22:10.639Z,20.00
2018-12-27T01:24:38.894Z,17.52
2018-12-27T01:27:06.928Z,18.35
2018-12-27T01:29:35.393Z,19.98
2018-12-27T01:32:04.298Z,18.90
2018-12-27T01:34:32.986Z,19.25
2018-12-27T01:37:01.310Z,19.05
2018-12-27T01:39:29.723Z,16.02
2018-12-27T01:41:57.518Z,18.55
2018-12-27T01:44:26.435Z,18.90
2018-12-27T01:46:54.361Z,17.27
2018-12-27T01:49:22.710Z,17.15
2018-12-27T01:51:51.026Z,15.65
2018-12-27T01:54:18.720Z,17.75
2018-12-27T01:56:52.252Z,18.65
2018-12-27T01:59:20.363Z,18.40
2018-12-27T02:01:48.366Z,17.73
2018-12-27T02:04:16.881Z,19.17
2018-12-27T02:06:45.043Z,19.23
2018-12-27T02:09:13.071Z,19.30
2018-12-27T02:11:41.542Z,18.65
2018-12-27T02:14:09.507Z,18.48
2018-12-27T02:16:38.012Z,19.10
2018-12-27T02:19:06.334Z,16.65
2018-12-27T02:21:34.758Z,18.00
2018-12-27T02:24:02.521Z,16.82
2018-12-27T02:26:31.065Z,19.50
2018-12-27T02:28:58.367Z,20.75
2018-12-27T02:31:26.443Z,19.50
2018-12-27T02:33:54.784Z,19.02
2018-12-27T02:36:22.434Z,20.80
2018-12-27T02:38:50.945Z,21.27
2018-12-27T02:41:19.116Z,19.62
2018-12-27T02:43:47.150Z,21.55
2018-12-27T02:46:15.207Z,20.92
2018-12-27T02:48:43.196Z,20.48
2018-12-27T02:51:11.947Z,20.20
2018-12-27T02:53:40.489Z,20.75
2018-12-27T02:56:08.588Z,18.98
2018-12-27T02:58:36.915Z,19.00
2018-12-27T03:01:04.938Z,19.92
2018-12-27T03:03:33.065Z,18.07
2018-12-27T03:06:01.815Z,18.12
2018-12-27T03:08:29.853Z,18.57
2018-12-27T03:10:57.888Z,18.42
2018-12-27T03:13:26.731Z,19.02
2018-12-27T03:15:54.669Z,18.62
2018-12-27T03:18:22.728Z,16.73
2018-12-27T03:20:51.007Z,17.75
2018-12-27T03:23:19.388Z,18.00
2018-12-27T03:25:47.907Z,16.90
2018-12-27T03:28:16.363Z,17.73
2018-12-27T03:30:45.344Z,17.85
2018-12-27T03:33:13.217Z,15.85
2018-12-27T03:35:41.319Z,18.65
2018-12-27T03:38:08.976Z,17.05
2018-12-27T03:40:37.834Z,18.27
2018-12-27T03:43:05.430Z,15.68
2018-12-27T03:45:34.182Z,15.75
2018-12-27T03:48:02.868Z,15.88
2018-12-27T03:50:31.176Z,15.55
2018-12-27T03:52:59.259Z,16.93
2018-12-27T03:55:27.612Z,16.75
2018-12-27T03:57:56.275Z,16.90
2018-12-27T04:00:24.278Z,16.10
2018-12-27T04:02:52.346Z,18.60
2018-12-27T04:05:20.299Z,17.85
2018-12-27T04:07:48.275Z,17.20
2018-12-27T04:10:16.415Z,16.17
2018-12-27T04:12:45.028Z,14.63
2018-12-27T04:15:13.721Z,15.23
2018-12-27T04:17:42.123Z,16.15
2018-12-27T04:20:09.657Z,18.73
2018-12-27T04:22:38.102Z,16.52
2018-12-27T04:25:05.851Z,19.57
2018-12-27T04:27:34.041Z,16.87
2018-12-27T04:30:02.252Z,15.98
2018-12-27T04:32:31.040Z,18.27
2018-12-27T04:34:59.746Z,17.40
2018-12-27T04:37:27.746Z,17.65
2018-12-27T04:39:56.106Z,16.45
2018-12-27T04:42:24.964Z,18.02
2018-12-27T04:44:53.361Z,15.70
2018-12-27T04:47:21.459Z,17.52
2018-12-27T04:49:49.767Z,15.98
2018-12-27T04:52:18.618Z,16.37
2018-12-27T04:54:46.250Z,17.12
2018-12-27T04:57:14.405Z,18.60
2018-12-27T04:59:41.749Z,16.40
2018-12-27T05:02:10.494Z,17.67
2018-12-27T05:04:38.756Z,18.00
2018-12-27T05:07:06.411Z,15.88
2018-12-27T05:09:34.528Z,17.87
2018-12-27T05:12:02.995Z,20.90
2018-12-27T05:14:30.376Z,18.70
2018-12-27T05:16:58.824Z,17.32
2018-12-27T05:19:27.094Z,18.67
2018-12-27T05:21:54.747Z,19.10
2018-12-27T05:24:22.057Z,18.20
2018-12-27T05:26:49.651Z,18.50
2018-12-27T05:29:18.348Z,17.82
2018-12-27T05:31:47.107Z,17.82
2018-12-27T05:34:14.828Z,18.42
2018-12-27T05:36:42.886Z,18.57
2018-12-27T05:39:10.536Z,20.40
2018-12-27T05:41:38.916Z,22.00
2018-12-27T05:44:07.263Z,22.07
2018-12-27T05:46:35.644Z,22.25
2018-12-27T05:49:03.350Z,21.48
2018-12-27T05:51:31.725Z,19.50
2018-12-27T05:54:00.010Z,19.27
2018-12-27T05:56:27.315Z,21.48
2018-12-27T05:58:55.945Z,21.95
2018-12-27T06:01:24.030Z,22.27
2018-12-27T06:03:51.968Z,20.48
2018-12-27T06:06:20.041Z,23.10
2018-12-27T06:08:48.119Z,23.30
2018-12-27T06:11:16.672Z,20.90
2018-12-27T06:13:45.092Z,22.98
2018-12-27T06:16:12.806Z,24.18
2018-12-27T06:18:40.811Z,21.77
2018-12-27T06:21:08.842Z,21.65
2018-12-27T06:23:36.421Z,21.48
2018-12-27T06:26:04.541Z,21.40
2018-12-27T06:28:33.295Z,21.97
2018-12-27T06:31:00.826Z,20.00
2018-12-27T06:33:28.525Z,20.60
2018-12-27T06:35:56.594Z,20.15
2018-12-27T06:38:24.667Z,19.65
2018-12-27T06:40:52.358Z,19.02
2018-12-27T06:43:20.083Z,18.23
2018-12-27T06:45:48.891Z,16.93
2018-12-27T06:48:16.867Z,16.82
2018-12-27T06:50:44.138Z,19.12
2018-12-27T06:53:12.211Z,18.52
2018-12-27T06:55:41.036Z,19.87
2018-12-27T06:58:09.046Z,19.15
2018-12-27T07:00:37.488Z,18.07
2018-12-27T07:03:05.936Z,18.77
2018-12-27T07:05:34.675Z,18.95
2018-12-27T07:08:02.725Z,18.25
2018-12-27T07:10:31.156Z,17.87
2018-12-27T07:12:59.533Z,18.32
2018-12-27T07:15:27.622Z,16.87
2018-12-27T07:17:55.926Z,18.25
2018-12-27T07:20:24.054Z,18.55
2018-12-27T07:22:52.705Z,16.27
2018-12-27T07:25:20.836Z,19.85
2018-12-27T07:27:49.618Z,17.30
2018-12-27T07:30:18.105Z,17.12
2018-12-27T07:32:46.172Z,17.27
2018-12-27T07:35:14.025Z,17.52
2018-12-27T07:37:42.909Z,17.25
2018-12-27T07:40:12.109Z,18.40
2018-12-27T07:42:40.094Z,20.23
2018-12-27T07:45:08.895Z,18.52
2018-12-27T07:47:37.296Z,17.73
2018-12-27T07:50:06.049Z,19.27
2018-12-27T07:52:34.120Z,20.08
2018-12-27T07:55:02.226Z,19.30
2018-12-27T07:57:30.265Z,20.12
2018-12-27T07:59:58.946Z,20.72
2018-12-27T08:02:27.134Z,19.80
2018-12-27T08:04:54.891Z,20.17
2018-12-27T08:07:23.297Z,20.25
2018-12-27T08:09:54.807Z,20.52
2018-12-27T08:12:22.644Z,19.70
2018-12-27T08:14:50.792Z,20.85
2018-12-27T08:17:19.187Z,22.15
2018-12-27T08:19:47.528Z,20.62
2018-12-27T08:22:15.235Z,22.00
2018-12-27T08:24:43.259Z,22.10
2018-12-27T08:27:11.232Z,19.65
2018-12-27T08:29:39.286Z,19.77
2018-12-27T08:32:07.683Z,20.82
2018-12-27T08:34:37.224Z,21.68
2018-12-27T08:37:05.778Z,22.52
2018-12-27T08:39:34.382Z,21.70
2018-12-27T08:42:02.749Z,22.17
2018-12-27T08:44:30.279Z,22.73
2018-12-27T08:46:58.382Z,19.02
2018-12-27T08:49:27.251Z,20.02
2018-12-27T08:51:55.020Z,18.20
2018-12-27T08:54:23.075Z,20.02
2018-12-27T08:56:51.445Z,19.42
2018-12-27T08:59:19.590Z,20.20
2018-12-27T09:01:47.720Z,20.30
2018-12-27T09:04:15.736Z,19.67
2018-12-27T09:06:44.151Z,22.67
2018-12-27T09:09:12.982Z,20.25
2018-12-27T09:11:40.944Z,22.42
2018-12-27T09:14:08.998Z,20.85
2018-12-27T09:16:37.810Z,22.05
2018-12-27T09:19:05.883Z,19.95
2018-12-27T09:21:34.253Z,21.00
2018-12-27T09:24:01.920Z,18.87
2018-12-27T09:26:29.566Z,19.67
2018-12-27T09:28:58.046Z,19.37
2018-12-27T09:31:26.452Z,20.05
2018-12-27T09:33:54.400Z,20.05
2018-12-27T09:36:23.105Z,19.25
2018-12-27T09:38:54.547Z,20.27
2018-12-27T09:41:22.920Z,20.85
2018-12-27T09:43:51.519Z,20.88
2018-12-27T09:46:19.994Z,17.12
2018-12-27T09:48:47.663Z,19.20
2018-12-27T09:51:17.868Z,19.90
2018-12-27T09:53:46.789Z,18.60
2018-12-27T09:56:15.862Z,18.85
2018-12-27T09:58:46.382Z,22.02
2018-12-27T10:01:15.169Z,20.30
2018-12-27T10:03:42.854Z,18.62
2018-12-27T10:06:13.684Z,18.65
2018-12-27T10:08:41.451Z,20.17
2018-12-27T10:11:09.951Z,19.05
2018-12-27T10:13:42.243Z,21.60
2018-12-27T10:16:10.717Z,18.17
2018-12-27T10:18:38.926Z,18.92
2018-12-27T10:21:06.765Z,19.77
2018-12-27T10:23:35.204Z,19.80
2018-12-27T10:26:04.088Z,19.25
2018-12-27T10:28:31.429Z,21.55
2018-12-27T10:30:59.971Z,19.40
2018-12-27T10:33:29.071Z,19.77
2018-12-27T10:35:58.162Z,20.72
2018-12-27T10:38:26.604Z,20.35
2018-12-27T10:40:54.668Z,21.75
2018-12-27T10:43:22.775Z,19.82
2018-12-27T10:45:51.072Z,20.92
2018-12-27T10:48:19.199Z,22.20
2018-12-27T10:50:47.910Z,21.95
2018-12-27T10:53:16.188Z,22.02
2018-12-27T10:55:45.105Z,23.30
2018-12-27T10:58:13.657Z,20.30
2018-12-27T11:00:41.830Z,21.55
2018-12-27T11:03:10.051Z,23.05
2018-12-27T11:05:38.819Z,21.82
2018-12-27T11:08:06.859Z,23.25
2018-12-27T11:10:34.655Z,23.67
2018-12-27T11:13:02.463Z,23.90
2018-12-27T11:15:30.559Z,23.85
2018-12-27T11:17:59.053Z,23.20
2018-12-27T11:20:26.935Z,22.32
2018-12-27T11:22:56.194Z,21.37
2018-12-27T11:25:24.446Z,24.07
2018-12-27T11:27:54.140Z,23.57
2018-12-27T11:30:22.284Z,25.15
2018-12-27T11:32:53.947Z,24.60
2018-12-27T11:35:24.593Z,24.90
2018-12-27T11:37:59.563Z,25.95
2018-12-27T11:40:28.028Z,22.00
2018-12-27T11:42:56.168Z,23.15
2018-12-27T11:45:24.548Z,26.00
2018-12-27T11:47:52.627Z,26.10
2018-12-27T11:50:21.220Z,24.30
2018-12-27T11:52:49.958Z,25.25
2018-12-27T11:55:17.952Z,25.12
2018-12-27T11:57:46.103Z,24.55
2018-12-27T12:00:14.696Z,27.22
2018-12-27T12:02:44.021Z,25.12
2018-12-27T12:05:12.194Z,25.15
2018-12-27T12:07:41.065Z,24.37
2018-12-27T12:10:09.775Z,23.00
2018-12-27T12:12:38.657Z,21.62
2018-12-27T12:15:07.423Z,22.87
2018-12-27T12:17:35.988Z,21.90
2018-12-27T12:20:04.399Z,23.62
2018-12-27T12:22:32.890Z,20.25
2018-12-27T12:25:01.071Z,22.25
2018-12-27T12:27:28.839Z,20.32
2018-12-27T12:29:56.944Z,20.25
2018-12-27T12:32:25.489Z,18.90
2018-12-27T12:34:54.255Z,20.50
2018-12-27T12:37:23.073Z,21.02
2018-12-27T12:39:50.435Z,18.70
2018-12-27T12:42:32.142Z,18.82
2018-12-27T12:44:48.975Z,19.50
2018-12-27T12:47:17.446Z,19.75
2018-12-27T12:49:48.977Z,19.40
2018-12-27T12:52:17.207Z,21.17
2018-12-27T12:54:44.927Z,21.42
2018-12-27T12:57:12.843Z,19.10
2018-12-27T12:59:40.970Z,21.40
2018-12-27T13:02:09.159Z,20.27
2018-12-27T13:04:37.219Z,22.42
2018-12-27T13:07:05.084Z,21.37
2018-12-27T13:09:33.529Z,21.95
2018-12-27T13:12:02.668Z,20.80
2018-12-27T13:14:31.256Z,21.05
2018-12-27T13:17:00.040Z,21.00
2018-12-27T13:19:28.476Z,24.02
2018-12-27T13:21:56.445Z,21.33
2018-12-27T13:24:24.606Z,22.00
2018-12-27T13:26:52.275Z,20.97
2018-12-27T13:29:20.070Z,21.57
2018-12-27T13:31:48.456Z,21.62
2018-12-27T13:34:16.188Z,23.45
2018-12-27T13:36:44.595Z,23.25
2018-12-27T13:39:12.676Z,20.27
2018-12-27T13:41:40.842Z,23.40
2018-12-27T13:44:09.301Z,22.13
2018-12-27T13:46:37.998Z,20.35
2018-12-27T13:49:06.888Z,21.42
2018-12-27T13:51:34.267Z,21.60
2018-12-27T13:54:02.397Z,21.77
2018-12-27T13:56:30.585Z,20.80
2018-12-27T13:58:58.712Z,18.90
2018-12-27T14:01:27.295Z,19.23
2018-12-27T14:03:55.404Z,20.65
2018-12-27T14:06:23.533Z,21.15
2018-12-27T14:08:55.349Z,22.85
2018-12-27T14:11:23.631Z,21.60
2018-12-27T14:13:59.276Z,17.50
2018-12-27T14:16:31.257Z,20.17
2018-12-27T14:18:59.329Z,17.12
2018-12-27T14:21:27.487Z,18.60
2018-12-27T14:23:58.956Z,18.67
2018-12-27T14:26:26.347Z,18.75
2018-12-27T14:28:55.870Z,17.82
2018-12-27T14:31:24.606Z,20.25
2018-12-27T14:33:53.305Z,19.12
2018-12-27T14:36:22.077Z,18.42
2018-12-27T14:38:50.471Z,16.35
2018-12-27T14:41:19.010Z,19.52
2018-12-27T14:43:48.657Z,18.32
2018-12-27T14:46:16.874Z,17.90
2018-12-27T14:48:45.610Z,18.17
2018-12-27T14:51:13.750Z,18.87
2018-12-27T14:53:42.169Z,20.95
2018-12-27T14:56:10.563Z,18.87
2018-12-27T14:58:39.572Z,18.05
2018-12-27T15:01:07.391Z,18.25
2018-12-27T15:03:36.073Z,17.70
2018-12-27T15:06:04.257Z,19.00
2018-12-27T15:08:31.918Z,18.80
2018-12-27T15:10:59.655Z,19.32
2018-12-27T15:13:27.763Z,17.62
2018-12-27T15:15:55.921Z,19.70
2018-12-27T15:18:24.329Z,18.82
2018-12-27T15:20:52.477Z,18.92
2018-12-27T15:23:20.683Z,21.60
2018-12-27T15:25:48.744Z,18.23
2018-12-27T15:28:17.231Z,18.67
2018-12-27T15:30:47.820Z,20.15
2018-12-27T15:33:15.539Z,21.45
2018-12-27T15:35:44.093Z,20.60
2018-12-27T15:38:12.975Z,20.37
2018-12-27T15:40:47.226Z,20.72
2018-12-27T15:43:15.720Z,19.57
2018-12-27T15:45:44.027Z,22.48
2018-12-27T15:48:12.256Z,21.15
2018-12-27T15:50:40.042Z,22.25
2018-12-27T15:53:08.443Z,18.67
2018-12-27T15:55:36.888Z,19.90
2018-12-27T15:58:04.168Z,18.45
2018-12-27T16:00:32.299Z,20.35
2018-12-27T16:03:00.546Z,18.12
2018-12-27T16:05:28.860Z,22.48
2018-12-27T16:07:57.307Z,23.50
2018-12-27T16:10:25.484Z,21.87
2018-12-27T16:12:54.024Z,19.75
2018-12-27T16:15:22.172Z,19.80
2018-12-27T16:17:50.735Z,21.37
2018-12-27T16:20:19.229Z,20.65
2018-12-27T16:22:46.997Z,19.25
2018-12-27T16:25:15.402Z,20.05
2018-12-27T16:27:43.468Z,21.75
2018-12-27T16:30:11.717Z,20.92
2018-12-27T16:32:40.107Z,20.50
2018-12-27T16:35:08.182Z,20.90
2018-12-27T16:37:36.569Z,19.90
2018-12-27T16:40:05.340Z,19.32
2018-12-27T16:42:34.047Z,19.45
2018-12-27T16:45:02.840Z,18.07
2018-12-27T16:47:30.498Z,22.30
2018-12-27T16:49:58.901Z,20.72
2018-12-27T16:52:27.697Z,20.17
2018-12-27T16:54:55.836Z,21.73
2018-12-27T16:57:23.652Z,20.48
2018-12-27T16:59:51.043Z,19.48
2018-12-27T17:02:19.444Z,19.87
2018-12-27T17:04:47.513Z,18.87
2018-12-27T17:07:16.184Z,19.62
2018-12-27T17:09:43.732Z,23.10
2018-12-27T17:12:11.516Z,19.95
2018-12-27T17:14:39.990Z,20.90
2018-12-27T17:17:08.394Z,22.98
2018-12-27T17:19:36.985Z,20.10
2018-12-27T17:22:05.797Z,22.30
2018-12-27T17:24:41.100Z,19.80
2018-12-27T17:27:15.996Z,22.98
2018-12-27T17:29:45.110Z,20.50
2018-12-27T17:32:13.112Z,21.62
2018-12-27T17:34:52.067Z,21.57
2018-12-27T17:37:23.447Z,23.22
2018-12-27T17:39:54.117Z,22.67
2018-12-27T17:42:28.744Z,21.20
2018-12-27T17:45:03.975Z,23.18
2018-12-27T17:48:06.596Z,20.57
2018-12-27T17:50:36.156Z,24.25
2018-12-27T17:53:04.871Z,23.85
2018-12-27T17:55:32.836Z,23.25
2018-12-27T17:58:00.582Z,22.13
2018-12-27T18:00:29.297Z,24.20
2018-12-27T18:02:58.163Z,24.12
2018-12-27T18:05:27.186Z,23.40
2018-12-27T18:07:56.557Z,22.42
2018-12-27T18:10:25.178Z,22.67
2018-12-27T18:12:53.109Z,21.90
2018-12-27T18:15:22.102Z,22.70
2018-12-27T18:18:09.036Z,23.65
2018-12-27T18:20:36.711Z,23.70
2018-12-27T18:23:05.376Z,23.02
2018-12-27T18:25:34.392Z,24.18
2018-12-27T18:28:03.322Z,21.50
2018-12-27T18:30:31.828Z,19.07
2018-12-27T18:33:02.064Z,21.77
2018-12-27T18:35:32.420Z,21.27
2018-12-27T18:38:02.733Z,27.22
2018-12-27T18:40:32.420Z,27.05
2018-12-27T18:43:01.334Z,23.70
2018-12-27T18:45:30.318Z,25.23
2018-12-27T18:47:58.250Z,24.65
2018-12-27T18:50:27.908Z,25.00
2018-12-27T18:52:56.697Z,21.80
2018-12-27T18:55:25.168Z,20.92
2018-12-27T18:57:53.043Z,22.02
2018-12-27T19:00:24.481Z,22.02
2018-12-27T19:02:53.005Z,21.42
2018-12-27T19:05:21.948Z,23.32
2018-12-27T19:07:50.059Z,20.75
2018-12-27T19:10:18.525Z,19.80
2018-12-27T19:13:13.910Z,21.37
2018-12-27T19:15:50.840Z,22.50
2018-12-27T19:18:43.585Z,21.42
2018-12-27T19:21:16.240Z,21.15
2018-12-27T19:23:44.723Z,22.40
2018-12-27T19:26:13.278Z,19.17
2018-12-27T19:28:41.701Z,19.25
2018-12-27T19:31:14.634Z,20.48
2018-12-27T19:33:42.720Z,21.25
2018-12-27T19:36:10.837Z,22.48
2018-12-27T19:38:55.237Z,20.43
2018-12-27T19:41:27.116Z,20.35
2018-12-27T19:43:55.609Z,22.98
2018-12-27T19:46:23.651Z,20.60
2018-12-27T19:48:51.369Z,19.75
2018-12-27T19:51:20.495Z,21.17
2018-12-27T19:53:49.038Z,21.23
2018-12-27T19:56:17.511Z,20.97
2018-12-27T19:58:45.534Z,20.08
2018-12-27T20:01:13.377Z,20.23
2018-12-27T20:03:41.844Z,18.87
2018-12-27T20:06:09.895Z,20.10
2018-12-27T20:08:37.625Z,19.12
2018-12-27T20:11:05.755Z,18.80
2018-12-27T20:13:34.817Z,20.60
2018-12-27T20:16:03.479Z,20.20
2018-12-27T20:18:32.195Z,19.90
2018-12-27T20:21:00.418Z,20.02
2018-12-27T20:23:28.575Z,20.85
2018-12-27T20:25:56.845Z,17.98
2018-12-27T20:28:25.546Z,18.75
2018-12-27T20:30:53.610Z,20.15
2018-12-27T20:33:21.414Z,20.45
2018-12-27T20:35:49.428Z,22.45
2018-12-27T20:38:17.525Z,21.27
2018-12-27T20:40:46.474Z,22.00
2018-12-27T20:43:14.186Z,21.90
2018-12-27T20:45:42.640Z,21.02
2018-12-27T20:48:11.261Z,21.80
2018-12-27T20:50:39.083Z,24.60
2018-12-27T20:53:07.158Z,24.20
2018-12-27T20:55:35.849Z,22.05
2018-12-27T20:58:04.117Z,24.05
2018-12-27T21:00:31.933Z,22.52
2018-12-27T21:03:00.441Z,24.02
2018-12-27T21:05:28.872Z,25.32
2018-12-27T21:07:57.335Z,24.37
2018-12-27T21:10:25.834Z,24.80
2018-12-27T21:12:53.988Z,21.90
2018-12-27T21:15:22.486Z,25.50
2018-12-27T21:17:52.460Z,23.98
2018-12-27T21:20:20.788Z,24.90
2018-12-27T21:22:49.783Z,23.70
2018-12-27T21:25:18.578Z,25.77
2018-12-27T21:27:46.779Z,24.67
2018-12-27T21:30:14.889Z,27.60
2018-12-27T21:32:42.971Z,25.68
2018-12-27T21:35:11.597Z,25.88
2018-12-27T21:37:40.029Z,27.40
2018-12-27T21:40:08.434Z,27.15
2018-12-27T21:42:36.108Z,24.98
2018-12-27T21:45:04.666Z,23.92
2018-12-27T21:47:33.197Z,24.45
2018-12-27T21:50:01.962Z,22.42
2018-12-27T21:52:30.453Z,25.97
2018-12-27T21:54:59.799Z,24.10
2018-12-27T21:57:28.306Z,24.55
2018-12-27T21:59:56.795Z,23.67
2018-12-27T22:02:24.881Z,23.67
2018-12-27T22:04:53.363Z,23.38
2018-12-27T22:07:21.913Z,24.75
2018-12-27T22:09:50.452Z,24.85
2018-12-27T22:12:18.287Z,26.30
2018-12-27T22:14:46.922Z,29.35
2018-12-27T22:17:14.648Z,26.40
2018-12-27T22:19:42.815Z,26.85
2018-12-27T22:22:11.014Z,24.65
2018-12-27T22:24:39.339Z,28.20
2018-12-27T22:27:07.435Z,25.85
2018-12-27T22:29:35.454Z,27.58
2018-12-27T22:32:04.186Z,25.02
2018-12-27T22:34:32.963Z,27.48
2018-12-27T22:37:00.940Z,28.20
2018-12-27T22:39:29.615Z,28.50
2018-12-27T22:41:58.108Z,25.10
2018-12-27T22:44:26.195Z,29.10
2018-12-27T22:46:54.646Z,27.73
2018-12-27T22:49:22.454Z,28.02
2018-12-27T22:51:51.295Z,26.70
2018-12-27T22:54:19.080Z,28.10
2018-12-27T22:56:47.795Z,29.50
2018-12-27T22:59:16.686Z,29.15
2018-12-27T23:01:50.373Z,31.33
2018-12-27T23:04:19.227Z,32.40
2018-12-27T23:06:48.076Z,32.03
2018-12-27T23:09:16.042Z,31.10
2018-12-27T23:11:43.933Z,29.90
2018-12-27T23:14:12.590Z,31.23
2018-12-27T23:16:40.655Z,31.30
2018-12-27T23:19:07.995Z,32.35
2018-12-27T23:21:36.691Z,29.20
2018-12-27T23:24:04.856Z,29.60
2018-12-27T23:26:33.278Z,30.80
2018-12-27T23:29:01.724Z,31.23
2018-12-27T23:31:29.800Z,29.42
2018-12-27T23:33:58.487Z,27.40
2018-12-27T23:36:26.569Z,28.98
2018-12-27T23:38:54.945Z,30.85
2018-12-27T23:41:22.608Z,29.98
2018-12-27T23:43:50.652Z,31.33
2018-12-27T23:46:18.890Z,29.40
2018-12-27T23:48:47.315Z,28.95
2018-12-27T23:51:14.991Z,30.52
2018-12-27T23:53:43.066Z,28.77
2018-12-27T23:56:11.691Z,30.23
2018-12-27T23:58:42.177Z,31.05
